Aérodrome :
LOGIN :

S'inscrire | Disclaimer

   EN    FR    IT 

 










Légende :    VFR   VFR Marginal   IFR   IFR Intensif   IFR Très Intensif
Visi : 
Plafond : 
>= 8 km
>= 3000ft
5 à 8 km
1000 à 3000 ft
1500m à 5 km
500 à 1000 ft
800 à 1500m
200 à 500 ft
< 800m
< 200 ft
Symboles :   Orages  Brouillard  Fortes neiges  Fortes précipitations  Vent > 20 kt
SIGMETs :   Divers  Orages  Givrage  Turbulence  Onde Orograph.  Cendres Volcan.






- Altitude de l'aérodrome : 218 ft
- Code IATA : LBG


LFPB - Paris / Le Bourget

DERNIER METAR :
  • 231300Z AUTO 23016KT 9999 OVC018 13/09 Q1023 TEMPO BKN008 BECMG 23020G30KT

METARs EXPIRÉS :
  • 231230Z AUTO 23015KT 180V270 9999 OVC019 13/09 Q1023 TEMPO BKN008 BECMG 23020G30KT
  • 231200Z AUTO 22015G30KT 190V250 9999 OVC020 13/09 Q1023 TEMPO BKN008
  • 231130Z AUTO 23017KT 190V260 9999 OVC020 13/09 Q1023 TEMPO BKN008 BECMG 23015G25KT
  • 231100Z AUTO 22017G28KT 9999 OVC020 13/09 Q1023 TEMPO BKN008
  • 231030Z AUTO 23014KT 200V280 9999 OVC020 13/09 Q1024 TEMPO BKN008 BECMG 23015G25KT

TAF AMD TAF LFPB
Valide du 23 à 12h jusqu'au 24 à 12h UTC


231150Z 2312/2412 23020G30KT 9999 BKN017
TEMPO 2312/2324 BKN008
BECMG 2400/2402 21005KT BKN008
TEMPO 2402/2407 3000 RADZ BKN003
BECMG 2408/2411 22015G30KT BKN017
ATIS : +33 1 48 62 43 92



MET'MAP, la Météo Aéronautique d'un coup d'oeil ! - Copyright ORBIFLY Décembre 2007 - Disclaimer

ORBIFLY MET'MAP TEAM :

Programmation & Développement : Alexandra Zaïnal
Sur une idée originale de : Baudouin d'Aumeries
Assistance à la programmation : Marc-Olivier Méhu
Soutien technique & logistique : Manuel Goepfert

Contact : metmap@orbifly.com




SOURCES & CREDITS :

   NOAA